Time;durP1;ratioP1;P1;durP2;ratioP2;P2;SDS_P1;SDS_P2;PMS_P1;PMS_P2;Temp;Humidity;BMP_temperature;BMP_pressure;BME280_temperature;BME280_humidity;BME280_pressure;Samples;Min_cycle;Max_cycle;Signal;HPM_P1;HPM_P2
2021/05/08 04:01:32;;;;;;;9.23;7.37;;;4.00;99.90;;;;;;5442900;23;20490;-65
2021/05/08 04:03:59;;;;;;;7.60;6.80;;;4.00;99.90;;;;;;4975124;28;20513;-64
2021/05/08 04:06:25;;;;;;;7.23;6.63;;;4.10;99.90;;;;;;4974584;28;21023;-63
2021/05/08 04:08:52;;;;;;;7.30;6.70;;;4.10;99.90;;;;;;4974615;28;20945;-64
2021/05/08 04:11:18;;;;;;;8.07;7.27;;;4.10;99.90;;;;;;4974788;28;20485;-63
2021/05/08 04:13:44;;;;;;;6.27;5.77;;;4.30;99.90;;;;;;4974785;28;20461;-64
2021/05/08 04:16:10;;;;;;;7.70;7.10;;;4.40;99.90;;;;;;4975048;28;20455;-65
2021/05/08 04:18:38;;;;;;;7.30;6.70;;;4.40;99.90;;;;;;4974697;28;20483;-64
2021/05/08 04:21:05;;;;;;;8.30;7.10;;;4.50;99.90;;;;;;4974630;28;20504;-64
2021/05/08 04:23:31;;;;;;;7.70;6.60;;;4.50;99.90;;;;;;4974800;28;20513;-64
2021/05/08 04:25:57;;;;;;;7.67;6.87;;;4.50;99.90;;;;;;4974674;28;20454;-64
2021/05/08 04:28:24;;;;;;;7.50;6.80;;;4.50;99.90;;;;;;4974615;28;20509;-64
2021/05/08 04:30:50;;;;;;;8.20;7.40;;;4.50;99.90;;;;;;4974441;28;20479;-64
2021/05/08 04:33:16;;;;;;;7.63;6.93;;;4.40;99.90;;;;;;4974527;28;20443;-63
2021/05/08 04:35:43;;;;;;;8.30;7.60;;;4.40;99.90;;;;;;4974570;28;20454;-63
2021/05/08 04:38:10;;;;;;;6.20;5.70;;;4.50;99.90;;;;;;4974318;28;20509;-65
2021/05/08 04:40:36;;;;;;;6.97;6.37;;;4.50;99.90;;;;;;4974455;28;20529;-63
2021/05/08 04:43:02;;;;;;;7.43;6.70;;;4.50;99.90;;;;;;4974133;28;20517;-66
2021/05/08 04:45:28;;;;;;;7.20;6.50;;;4.50;99.90;;;;;;4974402;28;20455;-65
2021/05/08 04:47:56;;;;;;;7.87;7.00;;;4.60;99.90;;;;;;4974740;28;20457;-63
2021/05/08 04:50:23;;;;;;;7.27;6.57;;;4.70;99.90;;;;;;4974699;28;20455;-64
2021/05/08 04:52:51;;;;;;;8.53;7.60;;;4.70;99.90;;;;;;4976709;28;20462;-63
2021/05/08 04:55:18;;;;;;;7.00;6.50;;;4.80;99.90;;;;;;4977160;28;20461;-63
2021/05/08 04:57:44;;;;;;;7.90;7.20;;;4.90;99.90;;;;;;4978206;28;20478;-65
2021/05/08 05:00:12;;;;;;;7.30;6.70;;;4.90;99.90;;;;;;4978534;28;20454;-67
2021/05/08 05:02:41;;;;;;;8.23;7.43;;;5.00;99.90;;;;;;4978195;28;20869;-64
2021/05/08 05:05:09;;;;;;;8.13;7.50;;;5.00;99.90;;;;;;4978207;28;20454;-64
2021/05/08 05:07:35;;;;;;;6.73;6.23;;;5.10;99.90;;;;;;4978196;28;20863;-66
2021/05/08 05:10:03;;;;;;;8.17;7.37;;;5.10;99.90;;;;;;4977905;28;20463;-64
2021/05/08 05:12:29;;;;;;;7.20;6.60;;;5.20;99.90;;;;;;4978033;28;20475;-64
2021/05/08 05:14:55;;;;;;;8.80;8.00;;;5.20;99.90;;;;;;4977896;28;20817;-65
2021/05/08 05:17:21;;;;;;;11.05;7.35;;;5.30;99.90;;;;;;4977994;28;20571;-64
2021/05/08 05:19:47;;;;;;;7.00;6.50;;;5.30;99.90;;;;;;4977756;28;20993;-65
2021/05/08 05:22:14;;;;;;;7.80;7.07;;;5.40;99.90;;;;;;4978027;28;20479;-64
2021/05/08 05:24:40;;;;;;;7.03;6.43;;;5.40;99.90;;;;;;4977830;28;20459;-64
2021/05/08 05:27:07;;;;;;;8.13;7.00;;;5.60;99.90;;;;;;4979096;28;20512;-64
2021/05/08 05:29:33;;;;;;;6.43;5.93;;;5.90;99.90;;;;;;4977345;28;21029;-65
2021/05/08 05:31:59;;;;;;;6.90;6.40;;;6.20;99.90;;;;;;4977657;28;20529;-64
2021/05/08 05:34:26;;;;;;;7.27;6.63;;;6.60;99.90;;;;;;4977847;28;20455;-64
2021/05/08 05:36:52;;;;;;;6.97;6.47;;;6.80;99.90;;;;;;4977431;28;20459;-65
2021/05/08 05:39:19;;;;;;;6.47;5.97;;;7.10;99.90;;;;;;4977145;28;20541;-63
2021/05/08 05:41:45;;;;;;;11.33;7.53;;;7.40;99.90;;;;;;4976817;28;20475;-63
2021/05/08 05:44:12;;;;;;;7.83;7.07;;;7.60;99.90;;;;;;4977302;28;20476;-63
2021/05/08 05:46:38;;;;;;;10.13;7.40;;;7.50;99.90;;;;;;4977122;28;20458;-65
2021/05/08 05:49:05;;;;;;;7.47;6.87;;;7.60;99.90;;;;;;4976767;28;20509;-64
2021/05/08 05:51:31;;;;;;;7.77;7.00;;;7.60;99.90;;;;;;4976893;28;20478;-64
2021/05/08 05:53:57;;;;;;;6.77;6.27;;;7.60;99.90;;;;;;4977911;28;20454;-64
2021/05/08 05:56:25;;;;;;;7.37;6.67;;;7.60;99.90;;;;;;4978100;28;20463;-64
2021/05/08 05:58:51;;;;;;;7.90;7.20;;;7.50;99.90;;;;;;4978074;28;20475;-64
2021/05/08 06:01:19;;;;;;;9.63;6.50;;;7.70;99.90;;;;;;4976740;28;20486;-65
2021/05/08 06:03:45;;;;;;;6.70;6.20;;;7.90;99.90;;;;;;4977293;28;20914;-63
2021/05/08 06:06:12;;;;;;;6.97;6.37;;;8.00;99.90;;;;;;4976039;28;20832;-64
2021/05/08 06:08:38;;;;;;;6.97;6.37;;;8.10;99.90;;;;;;4976649;28;20457;-64
2021/05/08 06:11:04;;;;;;;7.33;6.73;;;8.40;99.90;;;;;;4976527;28;20478;-64
2021/05/08 06:13:32;;;;;;;10.33;7.77;;;8.60;99.90;;;;;;4976462;28;20945;-64
2021/05/08 06:15:59;;;;;;;6.90;6.20;;;9.00;99.90;;;;;;4976239;28;20451;-63
2021/05/08 06:18:26;;;;;;;6.50;5.90;;;9.60;99.90;;;;;;4976854;28;20478;-66
2021/05/08 06:20:53;;;;;;;7.20;6.67;;;10.20;99.90;;;;;;4976450;28;20548;-64
2021/05/08 06:23:19;;;;;;;6.47;6.00;;;10.70;99.90;;;;;;4977236;28;20454;-64
2021/05/08 06:25:45;;;;;;;7.27;6.67;;;11.20;99.90;;;;;;4979354;28;20455;-63
2021/05/08 06:28:12;;;;;;;7.20;6.60;;;11.70;99.90;;;;;;4977370;28;20558;-64
2021/05/08 06:30:38;;;;;;;7.27;6.67;;;12.10;99.90;;;;;;4977431;28;20525;-66
2021/05/08 06:33:05;;;;;;;6.70;6.20;;;12.20;99.90;;;;;;4978308;28;20455;-64
2021/05/08 06:35:32;;;;;;;6.17;5.67;;;12.80;99.90;;;;;;4978875;28;20477;-64
2021/05/08 06:37:59;;;;;;;6.80;6.30;;;13.20;99.90;;;;;;4981070;28;20558;-64
2021/05/08 06:40:26;;;;;;;6.93;6.37;;;13.40;99.90;;;;;;4977296;28;20463;-64
2021/05/08 06:42:52;;;;;;;6.87;6.37;;;14.00;98.90;;;;;;4977205;28;20549;-64
2021/05/08 06:45:19;;;;;;;7.33;6.70;;;14.50;96.40;;;;;;4977206;28;20455;-64
2021/05/08 06:47:46;;;;;;;6.50;5.97;;;14.30;95.30;;;;;;4976095;28;20529;-64
2021/05/08 06:50:12;;;;;;;5.60;5.20;;;14.50;96.30;;;;;;4976290;28;20451;-63
2021/05/08 06:52:40;;;;;;;7.03;6.47;;;14.40;94.50;;;;;;4976046;28;20459;-63
2021/05/08 06:55:07;;;;;;;6.27;5.87;;;14.90;94.00;;;;;;4975960;28;20458;-64
2021/05/08 06:57:33;;;;;;;6.67;6.17;;;15.10;93.50;;;;;;4975742;28;20455;-64
2021/05/08 06:59:59;;;;;;;5.63;5.13;;;15.40;93.20;;;;;;4975662;28;20455;-64
2021/05/08 07:02:26;;;;;;;6.00;5.50;;;15.60;91.00;;;;;;4975874;28;20486;-64
2021/05/08 07:04:52;;;;;;;6.37;5.40;;;15.60;90.00;;;;;;4975956;28;20474;-64
2021/05/08 07:07:18;;;;;;;5.60;5.20;;;15.70;88.70;;;;;;4976249;28;20454;-63
2021/05/08 07:09:45;;;;;;;5.60;5.10;;;15.70;86.10;;;;;;4975564;28;20454;-64
2021/05/08 07:12:12;;;;;;;6.07;5.67;;;15.40;86.20;;;;;;4975839;28;20490;-63
2021/05/08 07:14:38;;;;;;;6.00;5.47;;;15.50;88.80;;;;;;4975788;28;20459;-64
2021/05/08 07:17:04;;;;;;;6.17;5.57;;;15.70;85.90;;;;;;4975400;28;20513;-63
2021/05/08 07:19:30;;;;;;;5.33;4.80;;;15.70;84.50;;;;;;4975591;28;20538;-63
2021/05/08 07:21:58;;;;;;;5.90;5.50;;;15.80;84.90;;;;;;4975390;28;20470;-63
2021/05/08 07:24:24;;;;;;;4.87;4.50;;;16.10;85.00;;;;;;4975005;28;20461;-63
2021/05/08 07:26:51;;;;;;;4.97;4.60;;;16.40;81.50;;;;;;4975668;28;20459;-63
2021/05/08 07:29:18;;;;;;;8.40;5.07;;;16.80;79.90;;;;;;4975451;28;20466;-63
2021/05/08 07:31:45;;;;;;;6.10;5.10;;;17.00;77.40;;;;;;4975398;28;20510;-63
2021/05/08 07:34:11;;;;;;;7.07;5.10;;;17.30;78.50;;;;;;4975265;28;20454;-64
2021/05/08 07:36:37;;;;;;;6.43;5.00;;;17.10;77.70;;;;;;4975484;28;20513;-63
2021/05/08 07:39:04;;;;;;;6.00;5.50;;;17.50;78.30;;;;;;4975724;28;20474;-64
2021/05/08 07:41:31;;;;;;;4.50;4.10;;;18.10;76.80;;;;;;4975592;28;20474;-63
2021/05/08 07:43:58;;;;;;;6.30;4.50;;;18.40;74.30;;;;;;4975780;28;20803;-64
2021/05/08 07:46:24;;;;;;;5.00;4.70;;;17.90;71.60;;;;;;4975626;28;20458;-63
2021/05/08 07:48:51;;;;;;;4.07;3.77;;;18.00;74.00;;;;;;4975612;28;20464;-64
2021/05/08 07:51:17;;;;;;;4.40;4.03;;;18.40;73.20;;;;;;4975789;28;20478;-63
2021/05/08 07:53:43;;;;;;;4.00;3.70;;;18.10;70.70;;;;;;4976689;28;20490;-63
2021/05/08 07:56:09;;;;;;;4.33;4.07;;;18.30;70.70;;;;;;4982517;28;20465;-63
2021/05/08 07:58:35;;;;;;;4.23;3.83;;;18.60;70.10;;;;;;4975727;28;20474;-63
2021/05/08 08:01:03;;;;;;;4.40;3.47;;;18.50;69.50;;;;;;4975329;28;20493;-63
2021/05/08 08:03:29;;;;;;;4.43;4.03;;;18.50;70.90;;;;;;4975627;28;20562;-63
2021/05/08 08:05:56;;;;;;;4.00;3.70;;;18.50;70.00;;;;;;4975186;28;20801;-63
2021/05/08 08:08:22;;;;;;;5.13;3.70;;;18.90;69.30;;;;;;4974882;28;20505;-63
2021/05/08 08:10:48;;;;;;;4.00;3.50;;;19.10;66.50;;;;;;4975327;28;20502;-63
2021/05/08 08:13:15;;;;;;;4.80;3.60;;;19.30;66.40;;;;;;4975688;28;20447;-61
2021/05/08 08:15:41;;;;;;;3.77;3.50;;;19.50;64.00;;;;;;4975297;28;20461;-63
2021/05/08 08:18:09;;;;;;;4.10;3.80;;;19.80;65.20;;;;;;4975418;28;20483;-63
2021/05/08 08:20:36;;;;;;;3.90;3.70;;;20.20;63.10;;;;;;4974924;28;20554;-62
2021/05/08 08:23:02;;;;;;;5.33;3.53;;;19.80;62.40;;;;;;4975602;28;20459;-63
2021/05/08 08:25:29;;;;;;;3.70;3.50;;;20.40;64.60;;;;;;4975300;28;20541;-63
2021/05/08 08:27:55;;;;;;;3.77;3.57;;;20.60;61.60;;;;;;4976556;28;20459;-63
2021/05/08 08:30:21;;;;;;;5.00;3.57;;;21.10;61.20;;;;;;4977759;28;20465;-63
2021/05/08 08:32:47;;;;;;;4.03;3.73;;;21.50;58.70;;;;;;4979290;28;20455;-64
2021/05/08 08:35:15;;;;;;;5.70;4.17;;;21.30;57.80;;;;;;4978405;28;20964;-63
2021/05/08 08:37:41;;;;;;;4.07;3.77;;;21.40;59.40;;;;;;4978904;28;20862;-63
2021/05/08 08:40:09;;;;;;;3.93;3.63;;;21.60;57.30;;;;;;4979516;28;20458;-63
2021/05/08 08:42:37;;;;;;;4.23;3.90;;;21.30;58.40;;;;;;4979058;28;20474;-63
2021/05/08 08:45:04;;;;;;;4.03;3.73;;;21.80;57.90;;;;;;4978986;28;20462;-62
2021/05/08 08:47:31;;;;;;;3.87;3.47;;;21.60;57.10;;;;;;4979109;28;20450;-63
2021/05/08 08:50:00;;;;;;;3.83;3.07;;;21.60;56.70;;;;;;4979643;28;20435;-63
2021/05/08 08:52:28;;;;;;;3.83;3.53;;;21.60;56.70;;;;;;4979918;28;20875;-63
2021/05/08 08:54:56;;;;;;;3.50;3.30;;;21.60;57.40;;;;;;4979122;28;20439;-64
2021/05/08 08:57:26;;;;;;;2.80;2.60;;;21.10;58.20;;;;;;4979519;28;20454;-62
2021/05/08 08:59:54;;;;;;;2.67;2.30;;;21.40;60.00;;;;;;4980757;28;20577;-62
2021/05/08 09:02:25;;;;;;;2.80;2.67;;;20.90;56.10;;;;;;4979736;28;20981;-63
2021/05/08 09:04:51;;;;;;;3.40;2.80;;;21.00;55.60;;;;;;4978636;28;20475;-63
2021/05/08 09:07:19;;;;;;;4.23;3.80;;;21.30;56.70;;;;;;4978710;28;20458;-62
2021/05/08 09:09:48;;;;;;;4.73;3.30;;;21.10;55.30;;;;;;4979664;28;20462;-63
2021/05/08 09:12:14;;;;;;;3.47;3.10;;;21.00;57.70;;;;;;4979322;28;20482;-63
2021/05/08 09:14:47;;;;;;;2.63;2.47;;;20.90;62.10;;;;;;4978693;28;20451;-63
2021/05/08 09:17:14;;;;;;;2.83;2.63;;;20.80;56.00;;;;;;4979197;28;20435;-63
2021/05/08 09:19:42;;;;;;;2.53;2.33;;;20.60;54.30;;;;;;4979565;28;20489;-63
2021/05/08 09:22:23;;;;;;;3.10;2.90;;;20.40;57.00;;;;;;4980379;28;20471;-63
2021/05/08 09:25:02;;;;;;;2.50;2.40;;;20.10;55.50;;;;;;4980074;28;20443;-63
2021/05/08 09:27:36;;;;;;;3.17;2.93;;;19.80;55.40;;;;;;4989464;28;20446;-63
2021/05/08 09:30:10;;;;;;;3.30;3.00;;;19.70;57.40;;;;;;4978047;28;21007;-63
2021/05/08 09:32:38;;;;;;;2.83;2.63;;;19.40;56.90;;;;;;4978356;28;20470;-63
2021/05/08 09:35:09;;;;;;;4.40;4.00;;;19.50;57.00;;;;;;4978130;28;20458;-64
2021/05/08 09:37:36;;;;;;;3.10;2.93;;;19.50;57.40;;;;;;4979362;28;20526;-63
2021/05/08 09:40:24;;;;;;;3.40;3.10;;;19.40;58.50;;;;;;4978967;28;20483;-63
2021/05/08 09:42:53;;;;;;;5.70;2.87;;;19.50;58.50;;;;;;4978846;28;20878;-63
2021/05/08 09:45:21;;;;;;;2.90;2.80;;;19.70;58.70;;;;;;4978543;28;20455;-62
2021/05/08 09:47:47;;;;;;;2.83;2.60;;;19.70;58.10;;;;;;4978966;28;20454;-62
2021/05/08 09:50:15;;;;;;;2.67;2.47;;;19.70;62.30;;;;;;4978741;28;20458;-63
2021/05/08 09:52:46;;;;;;;3.13;2.43;;;19.60;58.30;;;;;;4978577;28;20882;-62
2021/05/08 09:55:14;;;;;;;3.37;3.17;;;19.50;60.00;;;;;;4978070;28;20455;-63
2021/05/08 09:57:41;;;;;;;3.10;2.90;;;18.90;58.00;;;;;;4978529;28;20493;-63
2021/05/08 10:00:29;;;;;;;3.97;2.70;;;19.20;59.70;;;;;;4978617;28;20485;-63
2021/05/08 10:03:07;;;;;;;2.80;2.60;;;19.50;59.20;;;;;;4978211;28;20459;-63
2021/05/08 10:05:34;;;;;;;3.20;2.83;;;19.80;58.00;;;;;;4978354;28;20530;-63
2021/05/08 10:08:01;;;;;;;2.80;2.60;;;19.80;58.20;;;;;;4982128;28;20533;-64
2021/05/08 10:10:27;;;;;;;3.20;2.27;;;19.90;56.70;;;;;;4984718;28;20590;-64
2021/05/08 10:12:55;;;;;;;3.00;2.80;;;20.30;59.80;;;;;;4977972;28;20455;-63
2021/05/08 10:15:22;;;;;;;2.60;2.40;;;20.80;56.30;;;;;;4977793;28;20454;-63
2021/05/08 10:17:50;;;;;;;2.87;2.67;;;21.00;53.70;;;;;;4977892;28;20482;-63
2021/05/08 10:20:18;;;;;;;2.70;2.60;;;21.10;54.50;;;;;;4977924;28;20451;-62
2021/05/08 10:22:47;;;;;;;2.70;2.50;;;21.80;53.40;;;;;;4977589;28;20451;-63
2021/05/08 10:25:15;;;;;;;5.60;5.20;;;22.30;53.60;;;;;;4977764;28;20455;-63
2021/05/08 10:27:42;;;;;;;2.60;2.40;;;22.40;56.60;;;;;;4977177;28;20446;-64
2021/05/08 10:30:15;;;;;;;2.40;2.20;;;23.10;52.70;;;;;;4977505;28;20451;-62
2021/05/08 10:32:44;;;;;;;2.20;2.10;;;23.70;51.90;;;;;;4977233;28;20435;-63
2021/05/08 10:35:12;;;;;;;3.20;2.90;;;24.30;51.20;;;;;;4977590;28;20482;-63
2021/05/08 10:37:38;;;;;;;10.23;9.10;;;25.20;52.00;;;;;;4977352;28;20506;-65
2021/05/08 10:40:16;;;;;;;18.10;16.40;;;25.50;51.70;;;;;;4977351;28;20478;-65
2021/05/08 10:42:44;;;;;;;3.37;3.07;;;25.60;51.60;;;;;;4977596;28;20476;-65
2021/05/08 10:45:32;;;;;;;4.00;3.60;;;25.90;50.20;;;;;;4977250;28;20489;-63
2021/05/08 10:48:12;;;;;;;5.33;4.10;;;25.70;47.80;;;;;;4977604;28;20439;-64
2021/05/08 10:50:47;;;;;;;2.80;2.60;;;25.30;48.90;;;;;;4977581;28;20474;-64
2021/05/08 10:53:14;;;;;;;3.23;2.93;;;25.20;51.10;;;;;;4977220;28;20434;-65
2021/05/08 10:55:49;;;;;;;2.90;2.70;;;24.50;48.90;;;;;;4977563;28;20458;-64
2021/05/08 10:58:35;;;;;;;2.47;2.27;;;23.90;49.20;;;;;;4982138;28;20476;-64
2021/05/08 11:01:05;;;;;;;4.10;2.70;;;23.60;48.50;;;;;;4979178;28;20492;-64
2021/05/08 11:03:32;;;;;;;3.00;2.80;;;23.30;49.80;;;;;;4977672;28;20490;-64
2021/05/08 11:06:01;;;;;;;3.00;2.80;;;22.70;52.00;;;;;;4976833;28;20447;-65
2021/05/08 11:08:48;;;;;;;2.60;2.40;;;21.70;50.90;;;;;;4977775;28;20457;-65
2021/05/08 11:11:19;;;;;;;3.03;2.83;;;21.70;51.40;;;;;;4976971;28;20475;-64
2021/05/08 11:14:01;;;;;;;2.80;2.60;;;21.60;51.30;;;;;;4976639;28;20921;-66
2021/05/08 11:16:30;;;;;;;3.67;3.30;;;21.40;50.90;;;;;;4973719;28;20450;-64
2021/05/08 11:18:58;;;;;;;1.90;1.80;;;21.10;51.60;;;;;;4976539;28;20471;-65
2021/05/08 11:21:41;;;;;;;3.33;2.60;;;20.90;52.10;;;;;;4976970;28;20485;-66
2021/05/08 11:24:10;;;;;;;2.20;2.10;;;21.10;52.20;;;;;;4977013;28;20498;-64
2021/05/08 11:26:38;;;;;;;1.93;1.83;;;20.90;50.90;;;;;;4976612;28;20860;-65
2021/05/08 11:29:08;;;;;;;3.07;2.77;;;20.90;52.80;;;;;;4976683;28;20474;-65
2021/05/08 11:31:36;;;;;;;2.90;2.27;;;21.00;52.20;;;;;;4976018;28;20478;-66
2021/05/08 11:34:11;;;;;;;2.37;2.17;;;21.10;56.30;;;;;;4976586;28;21031;-65
2021/05/08 11:36:49;;;;;;;2.70;2.50;;;21.80;54.90;;;;;;4977437;28;20458;-65
2021/05/08 11:39:17;;;;;;;1.90;1.80;;;22.30;52.70;;;;;;4976197;28;20832;-64
2021/05/08 11:41:44;;;;;;;2.33;2.23;;;22.80;53.50;;;;;;4976281;28;20482;-65
2021/05/08 11:44:19;;;;;;;2.70;2.10;;;23.10;55.60;;;;;;4977037;28;20510;-65
2021/05/08 11:46:53;;;;;;;2.17;2.03;;;22.60;51.30;;;;;;4976480;28;20513;-65
2021/05/08 11:49:30;;;;;;;2.00;1.90;;;22.40;50.90;;;;;;4976383;28;20450;-64
2021/05/08 11:51:57;;;;;;;2.53;1.83;;;22.60;49.80;;;;;;4976205;28;20475;-64
2021/05/08 11:54:25;;;;;;;2.57;1.90;;;22.60;53.20;;;;;;4979333;28;20454;-64
2021/05/08 11:56:51;;;;;;;2.50;2.30;;;22.60;51.10;;;;;;4981475;28;20509;-64
2021/05/08 11:59:29;;;;;;;3.23;3.00;;;22.60;51.70;;;;;;4976664;28;20532;-65
2021/05/08 12:02:11;;;;;;;4.67;2.00;;;22.40;52.10;;;;;;4976432;28;20482;-64
2021/05/08 12:04:44;;;;;;;2.07;1.97;;;21.90;50.90;;;;;;4985030;28;20443;-64
2021/05/08 12:07:10;;;;;;;2.17;2.07;;;21.90;51.40;;;;;;4980607;28;20438;-65
2021/05/08 12:09:37;;;;;;;2.20;2.07;;;21.90;50.30;;;;;;4981020;28;20436;-65
2021/05/08 12:12:03;;;;;;;2.53;2.30;;;21.60;51.50;;;;;;4979878;28;20842;-65
2021/05/08 12:14:38;;;;;;;2.20;2.00;;;21.60;54.40;;;;;;4980185;28;20454;-65
2021/05/08 12:17:04;;;;;;;1.90;1.80;;;21.90;54.80;;;;;;4980116;28;20439;-66
2021/05/08 12:19:32;;;;;;;2.10;1.90;;;21.50;55.40;;;;;;4979726;28;20478;-65
2021/05/08 12:21:58;;;;;;;1.70;1.60;;;21.30;54.30;;;;;;4979794;28;20482;-65
2021/05/08 12:24:24;;;;;;;1.87;1.77;;;21.50;53.20;;;;;;4980227;28;20485;-64
2021/05/08 12:26:51;;;;;;;2.07;1.90;;;21.50;51.70;;;;;;4980349;28;20969;-64
2021/05/08 12:29:17;;;;;;;3.27;1.77;;;21.20;53.60;;;;;;4982710;28;20458;-65
2021/05/08 12:31:45;;;;;;;3.30;2.47;;;21.40;53.30;;;;;;4981782;28;20474;-65
2021/05/08 12:34:13;;;;;;;1.80;1.70;;;21.40;53.80;;;;;;4980497;28;20460;-66
2021/05/08 12:36:41;;;;;;;2.07;1.80;;;21.30;55.30;;;;;;4980850;28;20454;-66
2021/05/08 12:39:21;;;;;;;6.40;2.23;;;21.40;53.90;;;;;;4979369;28;20519;-66
2021/05/08 12:41:51;;;;;;;1.80;1.70;;;21.30;53.30;;;;;;4979551;28;20481;-65
2021/05/08 12:44:18;;;;;;;2.23;1.80;;;21.50;54.60;;;;;;4981418;28;20454;-67
2021/05/08 12:46:59;;;;;;;2.47;1.90;;;21.70;55.40;;;;;;4980224;28;20465;-64
2021/05/08 12:49:26;;;;;;;1.70;1.60;;;21.80;52.50;;;;;;4978567;28;20946;-63
2021/05/08 12:51:54;;;;;;;1.63;1.53;;;21.50;52.00;;;;;;4978991;28;21053;-64
2021/05/08 12:54:27;;;;;;;1.70;1.60;;;21.80;52.50;;;;;;4978286;28;20902;-66
2021/05/08 12:56:55;;;;;;;2.97;2.00;;;22.00;54.20;;;;;;4978528;28;20922;-65
2021/05/08 12:59:26;;;;;;;1.77;1.67;;;21.90;51.80;;;;;;4979170;28;20505;-65
2021/05/08 13:01:55;;;;;;;2.40;2.00;;;21.80;53.50;;;;;;4978811;28;20482;-63
2021/05/08 13:04:37;;;;;;;1.70;1.60;;;22.00;56.00;;;;;;4978594;28;20549;-63
2021/05/08 13:07:23;;;;;;;2.60;1.80;;;21.90;52.50;;;;;;4977869;28;20945;-65
2021/05/08 13:09:49;;;;;;;1.87;1.77;;;21.50;54.30;;;;;;4978205;28;20430;-67
2021/05/08 13:12:19;;;;;;;2.00;1.90;;;21.00;52.00;;;;;;4977796;28;20532;-64
2021/05/08 13:14:46;;;;;;;1.50;1.40;;;21.00;52.80;;;;;;4977429;28;20949;-64
2021/05/08 13:17:13;;;;;;;1.70;1.60;;;21.10;52.70;;;;;;4978245;28;20458;-65
2021/05/08 13:19:39;;;;;;;1.90;1.70;;;20.90;53.60;;;;;;4977954;28;20532;-65
2021/05/08 13:22:05;;;;;;;1.83;1.50;;;20.80;52.20;;;;;;4977973;28;20818;-66
2021/05/08 13:24:33;;;;;;;2.07;1.97;;;20.80;54.80;;;;;;4978582;28;20461;-65
2021/05/08 13:27:01;;;;;;;1.90;1.70;;;20.80;56.10;;;;;;4978750;28;20463;-65
2021/05/08 13:29:27;;;;;;;1.13;1.13;;;20.60;52.70;;;;;;4978928;28;20461;-65
2021/05/08 13:31:54;;;;;;;1.40;1.40;;;20.90;52.90;;;;;;4978144;28;20839;-65
2021/05/08 13:34:20;;;;;;;2.00;1.50;;;21.20;53.00;;;;;;4978505;28;20454;-64
2021/05/08 13:36:47;;;;;;;2.00;1.70;;;21.10;56.90;;;;;;4977832;28;20454;-64
2021/05/08 13:39:13;;;;;;;1.80;1.77;;;21.50;53.80;;;;;;4977934;28;20478;-65
2021/05/08 13:41:41;;;;;;;1.80;1.60;;;21.80;55.10;;;;;;4977892;28;20471;-63
2021/05/08 13:44:08;;;;;;;1.40;1.40;;;22.20;52.40;;;;;;4978028;28;20513;-65
2021/05/08 13:46:35;;;;;;;1.77;1.67;;;22.40;53.20;;;;;;4978851;28;20465;-63
2021/05/08 13:49:01;;;;;;;1.67;1.63;;;22.20;51.80;;;;;;4977802;28;20451;-64
2021/05/08 13:51:27;;;;;;;2.60;1.80;;;22.20;52.20;;;;;;4977911;28;20526;-64
2021/05/08 13:53:53;;;;;;;6.30;2.30;;;22.10;50.60;;;;;;4977388;28;20465;-64
2021/05/08 13:56:20;;;;;;;1.53;1.53;;;22.10;53.10;;;;;;4977175;28;20451;-64
2021/05/08 13:58:47;;;;;;;1.50;1.50;;;22.30;49.40;;;;;;4977458;28;20479;-64
2021/05/08 14:01:13;;;;;;;1.83;1.73;;;22.00;50.80;;;;;;4984907;28;20581;-64
2021/05/08 14:03:39;;;;;;;3.60;1.70;;;21.80;50.80;;;;;;4977357;28;20816;-64
2021/05/08 14:06:06;;;;;;;2.13;1.93;;;21.80;54.20;;;;;;4977194;28;20535;-64
2021/05/08 14:08:32;;;;;;;1.33;1.33;;;21.80;55.60;;;;;;4976709;28;20454;-64
2021/05/08 14:11:00;;;;;;;1.93;1.83;;;21.90;52.20;;;;;;4976910;28;20515;-63
2021/05/08 14:13:27;;;;;;;2.17;1.80;;;22.00;52.10;;;;;;4976464;28;20454;-63
2021/05/08 14:15:54;;;;;;;3.13;1.60;;;21.90;50.70;;;;;;4977132;28;20474;-63
2021/05/08 14:18:20;;;;;;;1.60;1.37;;;21.50;49.90;;;;;;4976470;28;20566;-63
2021/05/08 14:20:46;;;;;;;2.33;1.80;;;21.40;51.70;;;;;;4976501;28;20490;-63
2021/05/08 14:23:12;;;;;;;1.60;1.50;;;21.50;52.80;;;;;;4976749;28;20439;-64
2021/05/08 14:25:39;;;;;;;1.87;1.77;;;21.50;53.40;;;;;;4976867;28;20625;-63
2021/05/08 14:28:05;;;;;;;1.80;1.70;;;21.60;54.00;;;;;;4976307;28;20462;-64
2021/05/08 14:30:31;;;;;;;3.20;2.67;;;21.60;54.50;;;;;;4976703;28;20510;-63
2021/05/08 14:32:58;;;;;;;2.07;1.97;;;21.60;55.70;;;;;;4976462;28;20514;-63
2021/05/08 14:35:25;;;;;;;2.60;1.90;;;21.50;56.80;;;;;;4976443;28;20818;-63
2021/05/08 14:37:51;;;;;;;5.87;2.53;;;21.50;54.30;;;;;;4976007;28;20938;-63
2021/05/08 14:40:17;;;;;;;2.37;1.80;;;21.60;56.30;;;;;;4977143;28;20855;-63
2021/05/08 14:42:44;;;;;;;1.53;1.43;;;21.40;55.30;;;;;;4976602;28;20466;-63
2021/05/08 14:45:11;;;;;;;2.77;1.60;;;21.20;53.40;;;;;;4976830;28;20454;-63
2021/05/08 14:47:38;;;;;;;2.07;1.40;;;20.90;53.20;;;;;;4976622;28;20465;-62
2021/05/08 14:50:08;;;;;;;1.53;1.53;;;20.60;54.40;;;;;;4976772;28;20451;-63
2021/05/08 14:52:34;;;;;;;2.40;2.00;;;20.70;55.70;;;;;;4976483;28;20498;-63
2021/05/08 14:55:00;;;;;;;2.20;1.57;;;20.50;54.40;;;;;;4976552;28;20451;-63
2021/05/08 14:57:27;;;;;;;1.97;1.87;;;20.30;54.40;;;;;;4976458;28;20454;-63
2021/05/08 14:59:53;;;;;;;1.70;1.60;;;20.10;55.40;;;;;;4977126;28;20490;-64
2021/05/08 15:02:19;;;;;;;2.10;1.50;;;20.00;55.40;;;;;;4975775;28;20572;-63
2021/05/08 15:04:45;;;;;;;1.97;1.63;;;20.00;55.80;;;;;;4976211;28;20447;-63
2021/05/08 15:07:12;;;;;;;2.03;1.73;;;20.00;56.40;;;;;;4976333;28;20467;-63
2021/05/08 15:09:39;;;;;;;2.40;1.50;;;20.00;55.70;;;;;;4976030;28;20448;-63
2021/05/08 15:12:06;;;;;;;3.23;2.13;;;20.20;57.00;;;;;;4976290;28;20475;-62
2021/05/08 15:14:32;;;;;;;2.63;2.43;;;20.40;55.00;;;;;;4976160;28;20495;-62
2021/05/08 15:16:58;;;;;;;1.63;1.53;;;20.80;57.30;;;;;;4975689;28;20482;-62
2021/05/08 15:19:24;;;;;;;1.43;1.37;;;21.10;55.90;;;;;;4975820;28;20478;-62
2021/05/08 15:21:51;;;;;;;2.00;1.90;;;21.20;55.20;;;;;;4976033;28;20479;-67
2021/05/08 15:24:18;;;;;;;1.40;1.30;;;21.40;55.60;;;;;;4975691;28;20454;-64
2021/05/08 15:26:44;;;;;;;1.20;1.20;;;21.50;52.50;;;;;;4976578;28;20467;-64
2021/05/08 15:29:10;;;;;;;1.07;1.07;;;21.30;52.70;;;;;;4976466;28;20823;-63
2021/05/08 15:31:36;;;;;;;1.20;1.20;;;21.10;52.90;;;;;;4981854;28;20475;-64
2021/05/08 15:34:03;;;;;;;1.63;1.43;;;20.90;52.50;;;;;;4978271;28;20454;-65
2021/05/08 15:36:32;;;;;;;2.07;1.97;;;20.80;53.40;;;;;;4975695;28;20451;-64
2021/05/08 15:38:59;;;;;;;1.97;1.87;;;20.80;54.60;;;;;;4975554;28;20462;-64
2021/05/08 15:41:26;;;;;;;3.40;1.43;;;20.80;56.10;;;;;;4975363;28;20529;-64
2021/05/08 15:43:52;;;;;;;1.50;1.50;;;20.70;55.80;;;;;;4975268;28;20458;-64
2021/05/08 15:46:18;;;;;;;1.43;1.43;;;20.60;54.20;;;;;;4975765;28;20485;-63
2021/05/08 15:48:44;;;;;;;2.80;2.70;;;20.30;55.10;;;;;;4974827;28;20451;-63
2021/05/08 15:51:12;;;;;;;3.10;2.90;;;20.30;56.20;;;;;;4975282;28;20485;-65
2021/05/08 15:53:39;;;;;;;2.00;1.90;;;20.40;56.60;;;;;;4974858;28;20934;-65
2021/05/08 15:56:06;;;;;;;1.80;1.70;;;20.70;55.70;;;;;;4975403;28;20513;-65
2021/05/08 15:58:34;;;;;;;3.43;2.23;;;20.70;55.60;;;;;;4975008;28;20458;-66
2021/05/08 16:01:00;;;;;;;1.80;1.70;;;20.80;57.20;;;;;;4974814;28;20486;-65
2021/05/08 16:03:27;;;;;;;1.33;1.33;;;20.90;56.10;;;;;;4975350;28;20465;-65
2021/05/08 16:05:54;;;;;;;2.70;1.57;;;21.00;55.20;;;;;;4975696;28;20458;-65
2021/05/08 16:08:21;;;;;;;1.77;1.67;;;21.00;55.20;;;;;;4976830;28;20451;-64
2021/05/08 16:10:47;;;;;;;2.10;1.90;;;21.10;57.10;;;;;;4978858;28;20525;-66
2021/05/08 16:13:13;;;;;;;1.53;1.53;;;21.10;56.20;;;;;;4979977;28;20455;-65
2021/05/08 16:15:40;;;;;;;1.30;1.30;;;21.00;55.70;;;;;;4977418;28;20458;-65
2021/05/08 16:18:06;;;;;;;1.70;1.60;;;20.90;55.60;;;;;;4975587;28;20454;-65
2021/05/08 16:20:33;;;;;;;1.90;1.80;;;20.80;56.10;;;;;;4975525;28;20475;-64
2021/05/08 16:22:59;;;;;;;1.70;1.60;;;20.90;56.00;;;;;;4975010;28;20534;-64
2021/05/08 16:25:25;;;;;;;1.60;1.50;;;21.00;56.70;;;;;;4974719;28;20504;-64
2021/05/08 16:27:52;;;;;;;1.70;1.60;;;21.00;57.30;;;;;;4974787;28;20487;-65
2021/05/08 16:30:19;;;;;;;1.60;1.50;;;20.90;57.20;;;;;;4974731;28;20462;-65
2021/05/08 16:32:46;;;;;;;2.10;2.00;;;20.90;56.70;;;;;;4975011;28;20972;-65
2021/05/08 16:35:12;;;;;;;1.83;1.43;;;20.80;56.30;;;;;;4975336;28;20458;-64
2021/05/08 16:37:39;;;;;;;2.70;2.17;;;20.80;57.10;;;;;;4974884;28;20838;-64
2021/05/08 16:40:07;;;;;;;2.80;2.60;;;20.80;57.40;;;;;;4977768;28;20538;-63
2021/05/08 16:42:33;;;;;;;3.57;3.27;;;20.90;57.60;;;;;;4975395;28;20482;-64
2021/05/08 16:45:00;;;;;;;2.23;2.03;;;21.10;59.00;;;;;;4976576;28;20571;-64
2021/05/08 16:47:35;;;;;;;2.30;2.20;;;21.10;57.70;;;;;;4975158;28;20802;-64
2021/05/08 16:50:05;;;;;;;1.30;1.00;;;21.20;58.50;;;;;;4976013;28;20517;-64
2021/05/08 16:52:31;;;;;;;1.20;0.80;;;21.10;56.40;;;;;;4978203;28;20494;-66